Time;durP1;ratioP1;P1;durP2;ratioP2;P2;SDS_P1;SDS_P2;PMS_P1;PMS_P2;Temp;Humidity;BMP_temperature;BMP_pressure;BME280_temperature;BME280_humidity;BME280_pressure;Samples;Min_cycle;Max_cycle;Signal;HPM_P1;HPM_P2
2022/03/14 00:02:14;;;;;;;4.50;2.80;;;;;;;10.49;67.23;101550.91;5095730;28;20043;-76
2022/03/14 00:04:40;;;;;;;3.43;2.60;;;;;;;10.49;66.53;101545.50;5078975;28;20032;-81
2022/03/14 00:07:05;;;;;;;4.07;3.40;;;;;;;10.49;67.04;101552.78;5096724;28;20597;-82
2022/03/14 00:09:31;;;;;;;4.93;3.13;;;;;;;10.42;67.26;101553.56;5079252;28;20027;-81
2022/03/14 00:11:57;;;;;;;6.30;3.23;;;;;;;10.44;66.74;101556.91;5077915;28;20048;-83
2022/03/14 00:14:25;;;;;;;5.20;3.17;;;;;;;10.44;66.92;101562.34;5097750;28;20059;-79
2022/03/14 00:16:54;;;;;;;5.30;3.40;;;;;;;10.40;67.53;101565.59;5070422;28;20059;-80
2022/03/14 00:19:20;;;;;;;2.80;2.57;;;;;;;10.44;66.87;101577.72;5097434;28;20063;-80
2022/03/14 00:21:46;;;;;;;3.10;2.80;;;;;;;10.41;67.41;101578.13;5096263;28;20059;-81
2022/03/14 00:24:12;;;;;;;3.83;2.53;;;;;;;10.41;67.35;101572.72;5097109;28;20043;-81
2022/03/14 00:26:38;;;;;;;3.47;2.40;;;;;;;10.42;67.29;101579.81;5096607;28;20036;-77
2022/03/14 00:29:03;;;;;;;2.70;2.50;;;;;;;10.42;67.04;101580.63;5096849;28;20333;-84
2022/03/14 00:31:30;;;;;;;3.27;2.63;;;;;;;10.36;66.94;101570.56;5096034;28;20045;-82
2022/03/14 00:33:56;;;;;;;4.70;2.73;;;;;;;10.44;67.10;101583.16;5096441;28;20063;-80
2022/03/14 00:36:24;;;;;;;3.37;2.87;;;;;;;10.43;67.18;101581.47;5096549;28;20781;-81
2022/03/14 00:38:50;;;;;;;3.60;2.80;;;;;;;10.40;66.87;101590.00;5096643;28;20062;-82
2022/03/14 00:41:16;;;;;;;4.33;3.00;;;;;;;10.40;66.93;101595.41;5077762;28;20043;-79
2022/03/14 00:43:42;;;;;;;4.53;3.00;;;;;;;10.41;67.44;101610.63;5078208;28;20028;-82
2022/03/14 00:46:07;;;;;;;4.20;2.90;;;;;;;10.39;67.29;101601.84;5096501;28;20042;-82
2022/03/14 00:48:34;;;;;;;7.13;3.93;;;;;;;10.36;67.33;101610.38;5077750;28;20617;-81
2022/03/14 00:51:00;;;;;;;6.03;3.40;;;;;;;10.37;67.57;101606.63;5095780;28;20051;-80
2022/03/14 00:53:27;;;;;;;4.70;3.30;;;;;;;10.34;67.82;101609.69;5078420;28;20503;-81
2022/03/14 00:55:52;;;;;;;4.87;3.20;;;;;;;10.35;67.65;101611.38;5096255;28;20068;-82
2022/03/14 00:58:18;;;;;;;4.03;3.00;;;;;;;10.33;67.87;101613.44;5096140;28;20035;-80
2022/03/14 01:00:43;;;;;;;4.97;2.90;;;;;;;10.35;67.75;101611.38;5095961;28;20046;-82
2022/03/14 01:03:09;;;;;;;5.20;3.27;;;;;;;10.35;68.11;101616.81;5095872;28;20039;-81
2022/03/14 01:05:34;;;;;;;3.20;2.73;;;;;;;10.34;67.83;101618.66;5077448;28;20117;-82
2022/03/14 01:08:00;;;;;;;5.07;3.20;;;;;;;10.34;67.88;101625.97;5095934;28;20042;-82
2022/03/14 01:10:25;;;;;;;4.90;3.37;;;;;;;10.29;68.22;101627.38;5096069;28;20312;-81
2022/03/14 01:12:51;;;;;;;4.53;3.37;;;;;;;10.30;68.51;101634.44;5096024;28;20706;-82
2022/03/14 01:15:16;;;;;;;4.53;3.10;;;;;;;10.33;68.47;101632.41;5077839;28;20032;-79
2022/03/14 01:17:42;;;;;;;4.43;3.10;;;;;;;10.29;68.50;101621.94;5095378;28;21201;-81
2022/03/14 01:20:08;;;;;;;5.77;3.60;;;;;;;10.21;68.31;101632.03;5095757;28;20513;-80
2022/03/14 01:22:35;;;;;;;6.53;3.53;;;;;;;10.27;68.75;101647.53;5096126;28;20031;-81
2022/03/14 01:25:01;;;;;;;4.13;3.37;;;;;;;10.26;68.94;101641.28;5095435;28;20141;-80
2022/03/14 01:27:27;;;;;;;5.57;3.30;;;;;;;10.22;69.41;101639.97;5095231;28;21348;-81
2022/03/14 01:29:52;;;;;;;4.87;3.47;;;;;;;10.17;69.98;101645.13;5095398;28;20830;-82
2022/03/14 01:32:17;;;;;;;4.47;3.30;;;;;;;10.14;69.56;101646.34;5095810;28;20035;-79
2022/03/14 01:34:43;;;;;;;3.73;3.17;;;;;;;10.16;69.80;101645.31;5094812;28;20174;-82
2022/03/14 01:37:08;;;;;;;3.57;3.20;;;;;;;10.13;70.32;101652.78;5076901;28;20058;-80
2022/03/14 01:39:34;;;;;;;6.73;3.50;;;;;;;10.15;70.43;101660.72;5095913;28;20249;-78
2022/03/14 01:42:00;;;;;;;4.80;3.30;;;;;;;10.07;70.28;101648.13;5070069;28;20043;-80
2022/03/14 01:44:25;;;;;;;4.30;3.47;;;;;;;10.14;70.67;101664.47;5085281;28;20887;-79
2022/03/14 01:46:52;;;;;;;4.00;3.40;;;;;;;10.12;70.42;101661.13;5094854;28;20527;-81
2022/03/14 01:49:18;;;;;;;4.43;3.90;;;;;;;10.10;70.53;101666.72;5095308;28;20528;-81
2022/03/14 01:51:44;;;;;;;6.80;3.70;;;;;;;10.08;70.63;101666.06;5094820;28;20035;-78
2022/03/14 01:54:10;;;;;;;5.70;3.37;;;;;;;10.07;70.77;101668.94;5095141;28;20437;-82
2022/03/14 01:56:38;;;;;;;3.80;3.10;;;;;;;10.04;70.83;101669.34;5094571;28;20397;-80
2022/03/14 01:59:03;;;;;;;4.37;3.13;;;;;;;10.04;71.12;101669.34;5094880;28;20043;-83
2022/03/14 02:01:29;;;;;;;5.30;3.57;;;;;;;10.02;71.07;101677.63;5094752;28;20616;-81
2022/03/14 02:03:55;;;;;;;5.20;3.70;;;;;;;10.03;70.97;101683.91;5094847;28;20036;-81
2022/03/14 02:06:20;;;;;;;6.43;3.73;;;;;;;10.02;71.04;101677.63;5094613;28;20554;-80
2022/03/14 02:08:46;;;;;;;4.73;3.43;;;;;;;10.03;71.21;101681.19;5094916;28;20521;-80
2022/03/14 02:11:11;;;;;;;4.53;3.40;;;;;;;10.01;71.23;101675.97;5094630;28;20457;-81
2022/03/14 02:13:36;;;;;;;4.37;3.40;;;;;;;10.02;71.33;101665.97;5095126;28;20128;-78
2022/03/14 02:16:02;;;;;;;5.30;3.70;;;;;;;10.03;71.22;101682.00;5093638;28;20047;-81
2022/03/14 02:18:34;;;;;;;4.83;3.50;;;;;;;10.03;71.41;101692.03;5076238;28;20071;-80
2022/03/14 02:20:59;;;;;;;5.03;3.43;;;;;;;10.04;71.21;101680.16;5067497;28;20039;-82
2022/03/14 02:23:24;;;;;;;5.27;3.50;;;;;;;9.99;71.05;101694.25;5094531;28;20490;-78
2022/03/14 02:25:52;;;;;;;5.73;4.33;;;;;;;9.97;71.59;101701.72;5094396;28;20115;-80
2022/03/14 02:28:19;;;;;;;5.60;3.80;;;;;;;10.00;71.55;101705.94;5094674;28;20066;-83
2022/03/14 02:30:45;;;;;;;9.97;5.50;;;;;;;9.96;71.46;101705.47;5092376;28;20587;-81
2022/03/14 02:33:11;;;;;;;7.57;4.67;;;;;;;9.94;71.89;101700.25;5094479;28;20063;-79
2022/03/14 02:35:37;;;;;;;5.97;4.20;;;;;;;9.89;72.17;101694.53;5093688;28;20101;-81
2022/03/14 02:38:03;;;;;;;6.80;4.67;;;;;;;9.87;72.91;101693.88;5093879;28;20039;-82
2022/03/14 02:40:28;;;;;;;5.77;4.10;;;;;;;9.87;72.88;101707.41;5094344;28;20039;-77
2022/03/14 02:42:54;;;;;;;7.60;4.97;;;;;;;9.84;73.21;101702.38;5093496;28;20144;-80
2022/03/14 02:45:19;;;;;;;5.43;4.00;;;;;;;9.77;73.60;101690.63;5094507;28;20045;-78
2022/03/14 02:47:45;;;;;;;5.47;3.80;;;;;;;9.81;73.47;101702.75;5093529;28;20076;-81
2022/03/14 02:50:10;;;;;;;6.47;4.50;;;;;;;9.76;73.34;101714.16;5058656;28;20150;-81
2022/03/14 02:52:36;;;;;;;4.83;3.93;;;;;;;9.77;73.55;101717.69;5094598;28;20048;-86
2022/03/14 02:55:01;;;;;;;6.10;4.30;;;;;;;9.76;73.48;101727.69;5066834;28;20403;-80
2022/03/14 02:57:28;;;;;;;4.90;4.00;;;;;;;9.72;73.53;101720.91;5075421;28;20408;-84
2022/03/14 02:59:56;;;;;;;5.23;4.20;;;;;;;9.69;73.84;101732.13;5094278;28;20040;-80
2022/03/14 03:02:24;;;;;;;5.73;4.10;;;;;;;9.68;73.93;101735.03;5094092;28;20031;-79
2022/03/14 03:04:50;;;;;;;8.40;5.40;;;;;;;9.67;74.24;101736.91;5093898;28;20079;-82
2022/03/14 03:07:18;;;;;;;7.00;4.83;;;;;;;9.66;73.84;101737.09;5068729;28;20046;-80
2022/03/14 03:09:44;;;;;;;7.53;4.90;;;;;;;9.67;74.28;101744.16;5094227;28;20066;-81
2022/03/14 03:12:12;;;;;;;8.13;5.27;;;;;;;9.61;74.34;101735.78;5093737;28;20040;-81
2022/03/14 03:14:37;;;;;;;8.13;4.70;;;;;;;9.62;74.49;101745.53;5093994;28;20566;-80
2022/03/14 03:17:03;;;;;;;7.13;5.07;;;;;;;9.59;74.66;101748.63;5093843;28;20046;-82
2022/03/14 03:19:29;;;;;;;7.07;4.60;;;;;;;9.55;74.50;101752.72;5068830;28;20043;-81
2022/03/14 03:21:54;;;;;;;4.83;4.00;;;;;;;9.55;74.68;101760.00;5094029;28;20046;-81
2022/03/14 03:24:19;;;;;;;5.73;4.33;;;;;;;9.48;74.92;101754.50;5075575;28;20046;-80
2022/03/14 03:26:45;;;;;;;4.60;4.10;;;;;;;9.46;75.26;101760.09;5074767;28;20036;-83
2022/03/14 03:29:10;;;;;;;5.30;4.40;;;;;;;9.46;75.53;101780.88;5075601;28;20152;-82
2022/03/14 03:31:36;;;;;;;5.50;4.37;;;;;;;9.45;75.24;101784.59;5097874;28;20084;-82
2022/03/14 03:34:02;;;;;;;5.60;4.20;;;;;;;9.44;75.21;101785.63;5097290;28;20032;-81
2022/03/14 03:36:45;;;;;;;5.83;4.40;;;;;;;9.42;75.06;101793.06;5079234;28;20074;-77
2022/03/14 03:39:11;;;;;;;5.53;4.30;;;;;;;9.38;75.32;101805.28;5098055;28;20042;-83
2022/03/14 03:41:38;;;;;;;5.47;4.23;;;;;;;9.29;75.46;101799.91;5097421;28;20491;-81
2022/03/14 03:44:04;;;;;;;5.23;4.50;;;;;;;9.26;75.46;101805.69;5079221;28;20122;-78
2022/03/14 03:46:29;;;;;;;6.33;4.57;;;;;;;9.22;75.77;101809.78;5097750;28;20042;-79
2022/03/14 03:48:55;;;;;;;6.97;4.13;;;;;;;9.18;76.03;101816.56;5075957;28;20059;-83
2022/03/14 03:51:20;;;;;;;4.77;4.30;;;;;;;9.18;76.03;101827.38;5077113;28;21018;-82
2022/03/14 03:53:46;;;;;;;7.40;4.90;;;;;;;9.16;76.33;101826.72;5077394;28;20177;-81
2022/03/14 03:56:11;;;;;;;6.40;4.60;;;;;;;9.09;76.61;101821.16;5077177;28;20051;-81
2022/03/14 03:58:37;;;;;;;4.90;4.40;;;;;;;9.09;77.05;101833.84;5077033;28;20039;-80
2022/03/14 04:01:02;;;;;;;6.23;4.87;;;;;;;9.08;77.13;101840.28;5077234;28;20144;-80
2022/03/14 04:03:28;;;;;;;7.30;4.60;;;;;;;9.06;77.47;101845.03;5076875;28;20071;-76
2022/03/14 04:05:53;;;;;;;5.83;4.80;;;;;;;9.01;77.44;101850.13;5076915;28;20048;-81
2022/03/14 04:08:19;;;;;;;5.67;4.83;;;;;;;8.97;78.04;101856.91;5076920;28;20392;-84
2022/03/14 04:10:54;;;;;;;6.73;4.97;;;;;;;8.93;78.48;101872.63;5058613;28;20032;-81
2022/03/14 04:13:22;;;;;;;;;;;;;;;8.94;78.51;101880.53;5077273;28;20046;-82
2022/03/14 04:15:51;;;;;;;6.23;5.33;;;;;;;8.77;79.93;101863.56;5076866;28;20425;-79
2022/03/14 04:18:19;;;;;;;7.37;5.80;;;;;;;8.71;80.62;101875.06;5077060;28;20064;-81
2022/03/14 04:20:47;;;;;;;8.17;6.30;;;;;;;8.65;81.18;101883.03;5076494;28;20066;-81
2022/03/14 04:23:13;;;;;;;6.67;5.97;;;;;;;8.59;81.38;101893.53;5076706;28;20038;-83
2022/03/14 04:25:38;;;;;;;8.07;6.50;;;;;;;8.49;82.11;101884.75;5076664;28;20404;-81
2022/03/14 04:28:04;;;;;;;8.37;6.07;;;;;;;8.51;82.08;101898.91;5076360;28;20036;-83
2022/03/14 04:30:29;;;;;;;9.67;6.60;;;;;;;8.48;82.23;101891.16;5076604;28;20542;-78
2022/03/14 04:32:55;;;;;;;10.23;6.70;;;;;;;8.38;82.78;101896.75;5076252;28;20032;-81
2022/03/14 04:35:20;;;;;;;8.67;6.50;;;;;;;8.42;82.50;101908.06;5076917;28;20468;-81
2022/03/14 04:37:46;;;;;;;10.60;6.40;;;;;;;8.37;82.79;101905.00;5075614;28;20043;-77
2022/03/14 04:40:13;;;;;;;8.30;6.43;;;;;;;8.36;83.10;101898.75;5076480;28;20063;-78
2022/03/14 04:42:38;;;;;;;8.83;6.87;;;;;;;8.25;83.36;101908.06;5075415;28;20070;-80
2022/03/14 04:45:04;;;;;;;9.77;7.03;;;;;;;8.31;83.26;101911.94;5076012;28;20043;-79
2022/03/14 04:47:30;;;;;;;10.37;7.07;;;;;;;8.21;83.91;101922.91;5074431;28;20036;-82
2022/03/14 04:49:55;;;;;;;12.73;7.47;;;;;;;8.22;83.97;101919.19;5062481;28;20129;-83
2022/03/14 04:52:21;;;;;;;10.93;7.60;;;;;;;8.19;84.38;101926.81;5055830;28;20045;-78
2022/03/14 04:54:47;;;;;;;11.43;7.87;;;;;;;8.16;84.51;101935.22;5054505;28;20064;-79
2022/03/14 04:57:13;;;;;;;12.03;7.73;;;;;;;8.16;84.50;101930.69;5055326;28;20123;-83
2022/03/14 04:59:38;;;;;;;11.03;8.13;;;;;;;8.10;84.65;101936.75;5055527;28;20082;-81
2022/03/14 05:02:06;;;;;;;10.43;8.17;;;;;;;8.11;84.67;101941.13;5053642;28;20032;-80
2022/03/14 05:04:32;;;;;;;11.87;8.30;;;;;;;8.11;84.74;101952.78;5055962;28;20470;-82
2022/03/14 05:06:58;;;;;;;12.27;8.70;;;;;;;8.09;84.93;101954.81;5053713;28;20428;-80
2022/03/14 05:09:24;;;;;;;9.90;7.93;;;;;;;8.05;84.96;101952.59;5055993;28;20066;-77
2022/03/14 05:11:50;;;;;;;13.37;8.77;;;;;;;8.06;85.21;101960.53;5054996;28;20032;-80
2022/03/14 05:14:16;;;;;;;12.60;9.30;;;;;;;8.04;85.29;101973.34;5055621;28;20040;-80
2022/03/14 05:16:42;;;;;;;13.23;8.93;;;;;;;8.07;85.13;101975.72;5038052;28;20625;-81
2022/03/14 05:19:07;;;;;;;13.10;8.67;;;;;;;8.04;84.84;101969.81;5055390;28;20037;-81
2022/03/14 05:21:33;;;;;;;12.13;8.40;;;;;;;8.07;85.24;101980.28;5055685;28;20040;-81
2022/03/14 05:23:59;;;;;;;12.13;8.87;;;;;;;8.09;84.67;101976.41;5053217;28;20036;-81
2022/03/14 05:26:24;;;;;;;13.40;9.33;;;;;;;8.08;85.11;101987.38;5055874;28;20032;-81
2022/03/14 05:28:49;;;;;;;13.07;8.70;;;;;;;8.07;84.85;101991.91;5054608;28;20391;-82
2022/03/14 05:31:16;;;;;;;14.67;9.70;;;;;;;8.08;85.24;102009.81;5055419;28;20041;-78
2022/03/14 05:33:41;;;;;;;13.97;8.87;;;;;;;8.07;85.12;102007.28;5054156;28;20388;-79
2022/03/14 05:36:06;;;;;;;11.17;8.80;;;;;;;8.04;85.05;101999.50;5053854;28;20028;-79
2022/03/14 05:38:32;;;;;;;12.77;8.87;;;;;;;8.06;85.11;102011.81;5055246;28;20036;-78
2022/03/14 05:40:58;;;;;;;13.67;9.00;;;;;;;8.04;85.39;102019.25;5054594;28;20040;-79
2022/03/14 05:43:25;;;;;;;14.00;9.03;;;;;;;8.04;85.06;102026.50;5054453;28;20090;-78
2022/03/14 05:45:51;;;;;;;13.70;9.00;;;;;;;8.07;84.60;102031.56;5055237;28;20385;-77
2022/03/14 05:48:17;;;;;;;15.37;9.00;;;;;;;8.06;84.94;102035.28;5054372;28;20028;-82
2022/03/14 05:50:42;;;;;;;16.07;10.23;;;;;;;8.03;85.08;102035.59;5090836;28;20414;-83
2022/03/14 05:53:08;;;;;;;14.00;10.33;;;;;;;8.02;85.10;102036.59;5094466;28;20118;-82
2022/03/14 05:55:34;;;;;;;16.00;10.80;;;;;;;8.04;85.10;102050.81;5076848;28;20046;-80
2022/03/14 05:57:59;;;;;;;14.50;10.30;;;;;;;8.04;85.05;102051.63;5094068;28;20039;-80
2022/03/14 06:00:25;;;;;;;15.17;10.77;;;;;;;8.00;85.07;102060.25;5094823;28;22105;-82
2022/03/14 06:02:54;;;;;;;16.87;10.43;;;;;;;8.01;85.04;102059.22;5094511;28;20047;-81
2022/03/14 06:05:21;;;;;;;16.63;10.67;;;;;;;8.03;85.06;102059.91;5077880;28;20063;-81
2022/03/14 06:07:47;;;;;;;17.83;11.30;;;;;;;8.02;84.89;102061.75;5094297;28;20046;-81
2022/03/14 06:10:13;;;;;;;18.47;11.43;;;;;;;8.04;84.89;102067.00;5095263;28;20031;-80
2022/03/14 06:12:39;;;;;;;16.40;11.53;;;;;;;7.99;85.20;102077.44;5094661;28;20031;-79
2022/03/14 06:15:12;;;;;;;17.87;12.10;;;;;;;8.01;85.27;102076.25;5094823;28;20088;-80
2022/03/14 06:17:37;;;;;;;16.33;12.00;;;;;;;7.98;85.09;102079.28;5094671;28;20071;-79
2022/03/14 06:20:03;;;;;;;19.37;12.57;;;;;;;8.01;85.35;102087.06;5094945;28;20050;-81
2022/03/14 06:22:29;;;;;;;18.50;12.37;;;;;;;8.04;85.29;102094.00;5094565;28;20051;-82
2022/03/14 06:24:54;;;;;;;20.13;13.47;;;;;;;8.04;85.31;102094.00;5094234;28;21330;-81
2022/03/14 06:27:21;;;;;;;19.43;12.87;;;;;;;8.04;85.31;102104.78;5094611;28;20035;-82
2022/03/14 06:29:48;;;;;;;18.80;13.07;;;;;;;8.05;85.35;102104.63;5094368;28;20398;-79
2022/03/14 06:32:13;;;;;;;18.97;13.70;;;;;;;8.05;85.47;102101.06;5094021;28;20514;-81
2022/03/14 06:34:40;;;;;;;20.40;13.20;;;;;;;8.07;85.27;102109.84;5093632;28;20027;-82
2022/03/14 06:37:07;;;;;;;20.03;14.13;;;;;;;8.08;85.44;102117.78;5069604;28;20109;-81
2022/03/14 06:39:35;;;;;;;21.50;13.77;;;;;;;8.07;85.42;102121.47;5094444;28;20035;-82
2022/03/14 06:42:02;;;;;;;19.10;13.37;;;;;;;8.07;85.40;102115.25;5069694;28;20046;-82
2022/03/14 06:44:28;;;;;;;23.60;14.37;;;;;;;8.11;85.43;102124.72;5094516;28;20032;-80
2022/03/14 06:46:55;;;;;;;20.97;14.43;;;;;;;8.13;85.43;102127.25;5074657;28;20513;-82
2022/03/14 06:49:21;;;;;;;23.60;14.77;;;;;;;8.14;85.15;102135.16;5050459;28;20468;-81
2022/03/14 06:51:47;;;;;;;20.47;14.20;;;;;;;8.17;84.83;102128.59;5093921;28;20092;-81
2022/03/14 06:54:12;;;;;;;22.17;15.30;;;;;;;8.13;85.34;102141.56;5075866;28;20044;-83
2022/03/14 06:56:37;;;;;;;21.93;15.13;;;;;;;8.15;85.15;102122.53;5094762;28;20050;-83
2022/03/14 06:59:03;;;;;;;22.47;15.63;;;;;;;8.20;85.15;102139.06;5075149;28;20061;-82
2022/03/14 07:01:30;;;;;;;23.73;15.57;;;;;;;8.23;84.89;102144.16;5094649;28;20058;-83
2022/03/14 07:03:59;;;;;;;23.17;16.10;;;;;;;8.20;84.83;102137.22;5094357;28;20031;-81
2022/03/14 07:06:24;;;;;;;23.37;16.13;;;;;;;8.23;84.86;102144.16;5098349;28;20363;-83
2022/03/14 07:08:49;;;;;;;22.60;15.37;;;;;;;8.22;84.67;102143.28;5070088;28;20050;-83
2022/03/14 07:11:15;;;;;;;22.03;15.50;;;;;;;8.28;84.44;102155.28;5098471;28;20047;-81
2022/03/14 07:13:40;;;;;;;23.27;15.37;;;;;;;8.32;84.32;102161.22;5098189;28;20035;-81
2022/03/14 07:16:34;;;;;;;24.43;16.27;;;;;;;8.37;84.54;102164.28;5098262;28;20484;-81
2022/03/14 07:18:59;;;;;;;22.60;15.80;;;;;;;8.36;84.31;102159.88;5097668;28;20088;-82
2022/03/14 07:21:28;;;;;;;23.77;16.53;;;;;;;8.36;84.25;102170.69;5098369;28;20032;-82
2022/03/14 07:23:57;;;;;;;23.53;16.33;;;;;;;8.39;83.81;102168.50;5097822;28;20395;-80
2022/03/14 07:26:23;;;;;;;22.27;15.67;;;;;;;8.43;84.06;102167.16;5097936;28;20139;-81
2022/03/14 07:28:49;;;;;;;24.00;16.83;;;;;;;8.47;83.76;102174.97;5097473;28;20044;-81
2022/03/14 07:31:18;;;;;;;22.67;15.83;;;;;;;8.47;83.51;102177.66;5098076;28;20066;-78
2022/03/14 07:33:44;;;;;;;22.60;15.60;;;;;;;8.43;83.19;102169.00;5097393;28;20076;-82
2022/03/14 07:36:11;;;;;;;22.63;15.93;;;;;;;8.48;83.30;102171.25;5097919;28;20027;-83
2022/03/14 07:38:37;;;;;;;25.00;16.53;;;;;;;8.54;83.54;102170.56;5096256;28;20032;-81
2022/03/14 07:41:02;;;;;;;23.93;15.83;;;;;;;8.54;82.80;102176.84;5071267;28;20070;-82
2022/03/14 07:43:28;;;;;;;24.50;16.30;;;;;;;8.57;83.23;102187.31;5097461;28;20040;-78
2022/03/14 07:45:53;;;;;;;26.83;16.80;;;;;;;8.61;82.78;102183.25;5096462;28;20085;-81
2022/03/14 07:48:18;;;;;;;26.23;16.70;;;;;;;8.64;82.58;102186.66;5078909;28;20040;-82
2022/03/14 07:50:44;;;;;;;25.03;16.83;;;;;;;8.68;82.77;102186.16;5097354;28;20055;-81
2022/03/14 07:53:10;;;;;;;26.67;18.33;;;;;;;8.71;82.21;102188.50;5097385;28;20043;-83
2022/03/14 07:55:36;;;;;;;25.50;17.57;;;;;;;8.74;81.89;102193.59;5097167;28;20043;-79
2022/03/14 07:58:02;;;;;;;27.03;18.17;;;;;;;8.71;81.65;102198.47;5097202;28;20028;-78
2022/03/14 08:00:28;;;;;;;27.03;18.40;;;;;;;8.73;81.72;102193.75;5097562;28;20040;-82
2022/03/14 08:02:54;;;;;;;27.27;18.77;;;;;;;8.75;81.81;102206.06;5096639;28;20222;-81
2022/03/14 08:05:24;;;;;;;26.10;17.90;;;;;;;8.77;81.73;102205.91;5097647;28;20131;-82
2022/03/14 08:07:50;;;;;;;25.53;17.30;;;;;;;8.81;81.59;102215.38;5096913;28;20295;-80
2022/03/14 08:10:17;;;;;;;25.37;18.70;;;;;;;8.81;81.37;102220.78;5097065;28;20028;-82
2022/03/14 08:12:45;;;;;;;27.17;17.07;;;;;;;8.84;81.17;102220.47;5096872;28;20039;-82
2022/03/14 08:15:11;;;;;;;27.27;18.73;;;;;;;8.81;81.03;102220.78;5096643;28;20563;-83
2022/03/14 08:17:36;;;;;;;26.30;18.63;;;;;;;8.88;81.16;102227.22;5070368;28;20047;-82
2022/03/14 08:20:03;;;;;;;26.70;19.17;;;;;;;8.86;80.88;102237.34;5097118;28;20039;-79
2022/03/14 08:22:29;;;;;;;28.20;19.03;;;;;;;8.87;80.67;102239.03;5096940;28;20053;-82
2022/03/14 08:24:54;;;;;;;26.53;18.63;;;;;;;8.86;80.69;102240.06;5096220;28;20563;-81
2022/03/14 08:27:20;;;;;;;28.90;18.63;;;;;;;8.90;80.71;102238.69;5078846;28;20475;-82
2022/03/14 08:29:45;;;;;;;26.60;19.27;;;;;;;8.89;80.68;102244.28;5096473;28;20063;-83
2022/03/14 08:32:12;;;;;;;28.97;18.93;;;;;;;8.88;80.96;102254.25;5096903;28;20398;-82
2022/03/14 08:34:37;;;;;;;28.60;20.07;;;;;;;8.89;80.55;102252.38;5078310;28;20054;-80
2022/03/14 08:37:04;;;;;;;27.50;20.13;;;;;;;8.89;80.64;102255.94;5096623;28;20036;-83
2022/03/14 08:39:31;;;;;;;26.97;19.70;;;;;;;8.93;80.90;102270.84;5078163;28;20039;-79
2022/03/14 08:41:57;;;;;;;30.17;20.20;;;;;;;8.97;80.38;102271.31;5096464;28;20490;-79
2022/03/14 08:44:22;;;;;;;28.33;19.93;;;;;;;8.90;80.45;102279.25;5095368;28;20406;-78
2022/03/14 08:46:48;;;;;;;30.57;20.23;;;;;;;8.95;80.71;102282.31;5078028;28;20039;-79
2022/03/14 08:49:13;;;;;;;28.43;20.20;;;;;;;8.98;80.66;102281.13;5096100;28;20039;-83
2022/03/14 08:51:40;;;;;;;28.77;20.10;;;;;;;8.98;80.69;102291.94;5096858;28;20032;-83
2022/03/14 08:54:06;;;;;;;28.27;19.93;;;;;;;9.00;80.54;102289.06;5096044;28;20040;-82
2022/03/14 08:56:32;;;;;;;27.43;19.00;;;;;;;9.00;79.96;102281.78;5096827;28;20600;-82
2022/03/14 08:58:57;;;;;;;28.30;19.30;;;;;;;9.08;80.41;102297.19;5077678;28;20031;-80
2022/03/14 09:01:23;;;;;;;29.03;19.73;;;;;;;9.10;80.29;102303.31;5078202;28;20490;-83
2022/03/14 09:03:48;;;;;;;26.43;19.27;;;;;;;9.17;79.49;102298.91;5095762;28;20629;-83
2022/03/14 09:06:14;;;;;;;29.63;18.27;;;;;;;9.23;79.59;102305.50;5074802;28;20404;-84
2022/03/14 09:08:39;;;;;;;28.20;18.60;;;;;;;9.18;78.76;102311.44;5095769;28;20471;-78
2022/03/14 09:11:05;;;;;;;28.77;18.07;;;;;;;9.20;78.88;102306.69;5095890;28;20065;-80
2022/03/14 09:13:31;;;;;;;28.47;18.60;;;;;;;9.26;78.60;102310.56;5077334;28;20036;-86
2022/03/14 09:15:57;;;;;;;29.50;18.60;;;;;;;9.33;78.31;102319.72;5095688;28;20063;-81
2022/03/14 09:18:31;;;;;;;26.97;18.60;;;;;;;9.35;78.29;102320.41;5096007;28;20066;-79
2022/03/14 09:20:56;;;;;;;29.80;20.77;;;;;;;9.42;78.66;102332.25;5095634;28;20034;-80
2022/03/14 09:23:23;;;;;;;30.47;20.00;;;;;;;9.36;77.85;102341.03;5095975;28;20825;-79
2022/03/14 09:25:48;;;;;;;28.97;19.50;;;;;;;9.41;78.87;102337.81;5096010;28;21321;-86
2022/03/14 09:28:15;;;;;;;27.80;19.37;;;;;;;9.45;77.73;102336.47;5068716;28;20040;-82
2022/03/14 09:30:40;;;;;;;29.07;19.63;;;;;;;9.47;78.00;102339.84;5095803;28;20035;-82
2022/03/14 09:33:06;;;;;;;26.93;19.37;;;;;;;9.56;77.52;102349.69;5093992;28;20028;-80
2022/03/14 09:35:31;;;;;;;27.10;17.87;;;;;;;9.65;77.62;102355.09;5095474;28;20113;-81
2022/03/14 09:37:57;;;;;;;28.30;18.47;;;;;;;9.71;77.26;102362.53;5095950;28;20032;-83
2022/03/14 09:40:23;;;;;;;29.53;19.23;;;;;;;9.87;77.81;102367.94;5095499;28;20035;-80
2022/03/14 09:42:51;;;;;;;25.87;17.87;;;;;;;9.94;76.31;102368.09;5094604;28;20028;-83
2022/03/14 09:45:19;;;;;;;25.63;18.30;;;;;;;10.12;76.79;102382.31;5069084;28;20039;-82
2022/03/14 09:47:48;;;;;;;24.60;17.33;;;;;;;10.15;76.06;102370.28;5095345;28;20483;-82
2022/03/14 09:50:26;;;;;;;23.77;17.10;;;;;;;10.17;75.15;102378.25;5095091;28;20538;-80
2022/03/14 09:52:53;;;;;;;24.23;18.20;;;;;;;10.18;75.49;102385.34;5076856;28;20036;-83
2022/03/14 09:55:20;;;;;;;27.23;18.97;;;;;;;10.18;74.83;102391.59;5095053;28;20035;-80
2022/03/14 09:57:46;;;;;;;26.63;18.10;;;;;;;10.22;75.20;102397.53;5094982;28;20206;-82
2022/03/14 10:00:15;;;;;;;25.03;18.03;;;;;;;10.32;75.66;102398.19;5094237;28;20437;-81
2022/03/14 10:02:42;;;;;;;28.13;17.20;;;;;;;10.31;74.27;102400.06;5095020;28;20036;-82
2022/03/14 10:05:15;;;;;;;25.20;18.20;;;;;;;10.43;75.38;102406.00;5094296;28;20067;-83
2022/03/14 10:07:43;;;;;;;25.27;18.87;;;;;;;10.44;73.95;102406.84;5094858;28;20045;-81
2022/03/14 10:10:09;;;;;;;25.93;17.90;;;;;;;10.56;73.45;102407.31;5094542;28;20114;-77
2022/03/14 10:12:35;;;;;;;23.13;17.20;;;;;;;10.60;72.95;102408.66;5095100;28;20089;-85
2022/03/14 10:15:05;;;;;;;24.27;17.67;;;;;;;10.59;72.30;102413.25;5094492;28;20043;-81
2022/03/14 10:17:32;;;;;;;24.53;17.10;;;;;;;10.69;72.27;102414.91;5094641;28;20039;-80
2022/03/14 10:20:23;;;;;;;22.67;15.87;;;;;;;10.81;72.16;102408.06;5094100;28;20051;-83
2022/03/14 10:22:50;;;;;;;24.70;17.10;;;;;;;10.96;71.24;102403.63;5094226;28;20034;-82
2022/03/14 10:25:20;;;;;;;25.90;15.93;;;;;;;11.14;70.63;102402.53;5074989;28;20110;-80
2022/03/14 10:27:49;;;;;;;22.33;14.87;;;;;;;11.32;69.80;102413.13;5094413;28;20024;-80
2022/03/14 10:30:29;;;;;;;30.83;14.97;;;;;;;11.41;68.78;102417.47;5076118;28;20154;-81
2022/03/14 10:33:08;;;;;;;20.97;14.23;;;;;;;11.42;69.19;102421.88;5093817;28;20406;-82
2022/03/14 10:35:40;;;;;;;20.80;14.07;;;;;;;11.38;67.37;102422.41;5094322;28;20465;-81
2022/03/14 10:38:07;;;;;;;20.73;13.63;;;;;;;11.44;67.24;102435.28;5094565;28;20065;-80
2022/03/14 10:40:38;;;;;;;23.93;13.13;;;;;;;11.45;67.64;102436.94;5069409;28;20066;-83
2022/03/14 10:43:19;;;;;;;20.70;12.57;;;;;;;11.51;67.74;102444.38;5075507;28;20042;-80
2022/03/14 10:45:45;;;;;;;19.83;11.93;;;;;;;11.53;66.69;102444.19;5093596;28;21336;-81
2022/03/14 10:48:10;;;;;;;19.10;12.97;;;;;;;11.59;67.65;102438.91;5093770;28;20077;-80
2022/03/14 10:50:39;;;;;;;18.80;12.30;;;;;;;11.70;66.84;102447.66;5057404;28;20484;-79
2022/03/14 10:53:09;;;;;;;16.37;9.90;;;;;;;11.50;66.15;102429.13;5093665;28;20047;-78
2022/03/14 10:55:59;;;;;;;14.90;9.37;;;;;;;11.46;67.02;102433.22;5093697;28;20027;-83
2022/03/14 10:58:33;;;;;;;16.23;10.30;;;;;;;11.78;67.94;102436.75;5094513;28;20134;-81
2022/03/14 11:00:59;;;;;;;16.75;9.13;;;;;;;12.01;65.76;102436.78;5094043;28;20046;-82
2022/03/14 11:03:27;;;;;;;16.00;8.70;;;;;;;12.36;65.47;102436.28;5094152;28;20282;-85
2022/03/14 11:05:54;;;;;;;13.23;8.40;;;;;;;12.24;63.48;102442.19;5073096;28;20210;-79
2022/03/14 11:08:30;;;;;;;15.90;8.57;;;;;;;12.32;63.13;102450.25;5093898;28;20031;-81
2022/03/14 11:10:57;;;;;;;13.93;8.90;;;;;;;12.61;63.09;102450.50;5093782;28;20046;-85
2022/03/14 11:13:23;;;;;;;13.83;7.80;;;;;;;12.47;62.14;102446.69;5093858;28;20085;-83
2022/03/14 11:15:49;;;;;;;12.20;8.10;;;;;;;12.54;62.29;102455.81;5093868;28;20050;-81
2022/03/14 11:18:16;;;;;;;11.33;6.63;;;;;;;12.59;60.80;102464.28;5075798;28;20039;-82
2022/03/14 11:20:42;;;;;;;11.13;7.80;;;;;;;12.32;60.99;102449.38;5093670;28;20039;-79